Time,TemperatureF,DewpointF,PressureIn,WindDirection,WindDirectionDegrees,WindSpeedMPH,WindSpeedGustMPH,Humidity,HourlyPrecipIn,Conditions,Clouds,dailyrainin,SoftwareType,DateUTC
2013-01-23 00:02:00,55.0,11.0,-100.00,East,90,6.0,9.0,17,-99.99,,,-99.99,,2013-01-23 08:02:00,
2013-01-23 00:12:00,55.0,11.0,-100.00,East,94,7.0,9.0,17,-99.99,,,-99.99,,2013-01-23 08:12:00,
2013-01-23 00:22:00,55.0,11.0,-100.00,East,89,7.0,11.0,17,-99.99,,,-99.99,,2013-01-23 08:22:00,
2013-01-23 00:32:00,55.0,11.0,-100.00,East,88,6.0,10.0,17,-99.99,,,-99.99,,2013-01-23 08:32:00,
2013-01-23 00:42:00,54.0,11.0,-100.00,ENE,76,1.0,4.0,18,-99.99,,,-99.99,,2013-01-23 08:42:00,
2013-01-23 00:52:00,54.0,11.0,-100.00,ESE,110,4.0,6.0,18,-99.99,,,-99.99,,2013-01-23 08:52:00,
2013-01-23 01:02:00,54.0,11.0,-100.00,ESE,110,4.0,6.0,18,-99.99,,,-99.99,,2013-01-23 09:02:00,
2013-01-23 01:12:00,53.0,12.0,-100.00,East,99,7.0,10.0,19,-99.99,,,-99.99,,2013-01-23 09:12:00,
2013-01-23 01:22:00,54.0,11.0,-100.00,ESE,102,7.0,9.0,18,-99.99,,,-99.99,,2013-01-23 09:22:00,
2013-01-23 01:32:00,54.0,13.0,-100.00,East,96,5.0,8.0,19,-99.99,,,-99.99,,2013-01-23 09:32:00,
2013-01-23 01:43:00,54.0,13.0,-100.00,East,94,4.0,6.0,19,-99.99,,,-99.99,,2013-01-23 09:43:00,
2013-01-23 01:52:00,54.0,13.0,-100.00,East,94,4.0,6.0,19,-99.99,,,-99.99,,2013-01-23 09:52:00,
2013-01-23 02:02:00,55.0,14.0,-100.00,East,89,5.0,8.0,19,-99.99,,,-99.99,,2013-01-23 10:02:00,
2013-01-23 02:12:00,56.0,14.0,-100.00,East,92,4.0,6.0,19,-99.99,,,-99.99,,2013-01-23 10:12:00,
2013-01-23 02:22:00,56.0,16.0,-100.00,East,89,4.0,8.0,20,-99.99,,,-99.99,,2013-01-23 10:22:00,
2013-01-23 02:32:00,56.0,16.0,-100.00,East,82,6.0,11.0,20,-99.99,,,-99.99,,2013-01-23 10:32:00,
2013-01-23 02:42:00,57.0,16.0,-100.00,East,84,7.0,11.0,20,-99.99,,,-99.99,,2013-01-23 10:42:00,
2013-01-23 02:52:00,57.0,15.0,-100.00,East,84,7.0,11.0,19,-99.99,,,-99.99,,2013-01-23 10:52:00,
2013-01-23 03:02:00,57.0,15.0,-100.00,East,84,7.0,11.0,19,-99.99,,,-99.99,,2013-01-23 11:02:00,
2013-01-23 03:12:00,57.0,15.0,-100.00,East,79,7.0,13.0,19,-99.99,,,-99.99,,2013-01-23 11:12:00,
2013-01-23 03:22:00,57.0,15.0,-100.00,ENE,68,7.0,11.0,19,-99.99,,,-99.99,,2013-01-23 11:22:00,
2013-01-23 03:32:00,57.0,15.0,-100.00,ENE,74,7.0,11.0,19,-99.99,,,-99.99,,2013-01-23 11:32:00,
2013-01-23 03:42:00,57.0,15.0,-100.00,ENE,78,7.0,11.0,19,-99.99,,,-99.99,,2013-01-23 11:42:00,
2013-01-23 03:52:00,57.0,15.0,-100.00,ENE,74,6.0,12.0,19,-99.99,,,-99.99,,2013-01-23 11:52:00,
2013-01-23 04:02:00,58.0,16.0,-100.00,ENE,63,8.0,15.0,19,-99.99,,,-99.99,,2013-01-23 12:02:00,
2013-01-23 04:12:00,58.0,16.0,-100.00,ENE,71,6.0,10.0,19,-99.99,,,-99.99,,2013-01-23 12:12:00,
2013-01-23 04:22:00,57.0,16.0,-100.00,ENE,69,9.0,13.0,20,-99.99,,,-99.99,,2013-01-23 12:22:00,
2013-01-23 04:32:00,57.0,16.0,-100.00,ENE,73,8.0,11.0,20,-99.99,,,-99.99,,2013-01-23 12:32:00,
2013-01-23 04:42:00,58.0,17.0,-100.00,East,80,7.0,12.0,20,-99.99,,,-99.99,,2013-01-23 12:42:00,
2013-01-23 04:52:00,57.0,17.0,-100.00,ENE,76,7.0,12.0,21,-99.99,,,-99.99,,2013-01-23 12:52:00,
2013-01-23 05:03:00,57.0,16.0,-100.00,ENE,70,8.0,13.0,20,-99.99,,,-99.99,,2013-01-23 13:03:00,
2013-01-23 05:12:00,57.0,17.0,-100.00,ENE,78,7.0,11.0,21,-99.99,,,-99.99,,2013-01-23 13:12:00,
2013-01-23 05:22:00,57.0,16.0,-100.00,ENE,72,7.0,11.0,20,-99.99,,,-99.99,,2013-01-23 13:22:00,
2013-01-23 05:33:00,57.0,16.0,-100.00,ENE,68,7.0,11.0,20,-99.99,,,-99.99,,2013-01-23 13:33:00,
2013-01-23 05:42:00,57.0,16.0,-100.00,ENE,68,7.0,11.0,20,-99.99,,,-99.99,,2013-01-23 13:42:00,
2013-01-23 05:52:00,57.0,16.0,-100.00,ENE,75,5.0,10.0,20,-99.99,,,-99.99,,2013-01-23 13:52:00,
2013-01-23 06:02:00,57.0,16.0,-100.00,East,85,8.0,12.0,20,-99.99,,,-99.99,,2013-01-23 14:02:00,
2013-01-23 06:12:00,58.0,17.0,-100.00,ENE,70,8.0,13.0,20,-99.99,,,-99.99,,2013-01-23 14:12:00,
2013-01-23 06:23:00,58.0,17.0,-100.00,East,87,7.0,12.0,20,-99.99,,,-99.99,,2013-01-23 14:23:00,
2013-01-23 06:33:00,58.0,17.0,-100.00,East,92,8.0,12.0,20,-99.99,,,-99.99,,2013-01-23 14:33:00,
2013-01-23 06:42:00,58.0,17.0,-100.00,East,83,7.0,13.0,20,-99.99,,,-99.99,,2013-01-23 14:42:00,
2013-01-23 06:53:00,58.0,17.0,-100.00,ENE,76,7.0,11.0,20,-99.99,,,-99.99,,2013-01-23 14:53:00,
2013-01-23 07:02:00,58.0,17.0,-100.00,ENE,77,6.0,11.0,20,-99.99,,,-99.99,,2013-01-23 15:02:00,
2013-01-23 07:12:00,58.0,17.0,-100.00,East,89,5.0,9.0,20,-99.99,,,-99.99,,2013-01-23 15:12:00,
2013-01-23 07:22:00,59.0,18.0,-100.00,East,85,6.0,10.0,20,-99.99,,,-99.99,,2013-01-23 15:22:00,
2013-01-23 07:33:00,59.0,19.0,-100.00,East,89,6.0,10.0,21,-99.99,,,-99.99,,2013-01-23 15:33:00,
2013-01-23 07:43:00,59.0,19.0,-100.00,East,96,5.0,8.0,21,-99.99,,,-99.99,,2013-01-23 15:43:00,
2013-01-23 07:52:00,59.0,20.0,-100.00,East,94,5.0,7.0,22,-99.99,,,-99.99,,2013-01-23 15:52:00,
2013-01-23 08:02:00,59.0,20.0,-100.00,East,93,5.0,9.0,22,-99.99,,,-99.99,,2013-01-23 16:02:00,
2013-01-23 08:12:00,60.0,21.0,-100.00,East,93,5.0,8.0,22,-99.99,,,-99.99,,2013-01-23 16:12:00,
2013-01-23 08:22:00,60.0,21.0,-100.00,East,97,5.0,9.0,22,-99.99,,,-99.99,,2013-01-23 16:22:00,
2013-01-23 08:32:00,60.0,21.0,-100.00,East,101,5.0,10.0,22,-99.99,,,-99.99,,2013-01-23 16:32:00,
2013-01-23 08:42:00,60.0,21.0,-100.00,East,101,5.0,10.0,22,-99.99,,,-99.99,,2013-01-23 16:42:00,
2013-01-23 08:52:00,60.0,21.0,-100.00,ESE,118,5.0,11.0,22,-99.99,,,-99.99,,2013-01-23 16:52:00,
2013-01-23 09:02:00,61.0,22.0,-100.00,ESE,107,5.0,9.0,22,-99.99,,,-99.99,,2013-01-23 17:02:00,
2013-01-23 09:12:00,60.0,22.0,-100.00,ESE,104,5.0,7.0,23,-99.99,,,-99.99,,2013-01-23 17:12:00,
2013-01-23 09:22:00,60.0,21.0,-100.00,East,88,6.0,11.0,22,-99.99,,,-99.99,,2013-01-23 17:22:00,
2013-01-23 09:33:00,62.0,22.0,-100.00,ENE,78,7.0,12.0,21,-99.99,,,-99.99,,2013-01-23 17:33:00,
2013-01-23 09:42:00,64.0,23.0,-100.00,ENE,73,7.0,15.0,21,-99.99,,,-99.99,,2013-01-23 17:42:00,
2013-01-23 09:52:00,65.0,23.0,-100.00,ENE,72,8.0,13.0,20,-99.99,,,-99.99,,2013-01-23 17:52:00,
2013-01-23 10:03:00,65.0,23.0,-100.00,ENE,77,7.0,14.0,20,-99.99,,,-99.99,,2013-01-23 18:03:00,
2013-01-23 10:12:00,66.0,25.0,-100.00,ENE,68,8.0,13.0,21,-99.99,,,-99.99,,2013-01-23 18:12:00,
2013-01-23 10:22:00,67.0,26.0,-100.00,East,79,8.0,16.0,21,-99.99,,,-99.99,,2013-01-23 18:22:00,
2013-01-23 10:32:00,66.0,25.0,-100.00,East,85,7.0,13.0,21,-99.99,,,-99.99,,2013-01-23 18:32:00,
2013-01-23 10:43:00,66.0,26.0,-100.00,ENE,72,6.0,10.0,22,-99.99,,,-99.99,,2013-01-23 18:43:00,
2013-01-23 10:52:00,66.0,26.0,-100.00,East,80,6.0,12.0,22,-99.99,,,-99.99,,2013-01-23 18:52:00,
2013-01-23 11:02:00,66.0,26.0,-100.00,ENE,73,7.0,11.0,22,-99.99,,,-99.99,,2013-01-23 19:02:00,
2013-01-23 11:12:00,66.0,26.0,-100.00,ENE,75,7.0,13.0,22,-99.99,,,-99.99,,2013-01-23 19:12:00,
2013-01-23 11:22:00,66.0,26.0,-100.00,East,80,7.0,12.0,22,-99.99,,,-99.99,,2013-01-23 19:22:00,
2013-01-23 11:32:00,67.0,27.0,-100.00,East,80,6.0,11.0,22,-99.99,,,-99.99,,2013-01-23 19:32:00,
2013-01-23 11:42:00,67.0,27.0,-100.00,ENE,78,6.0,12.0,22,-99.99,,,-99.99,,2013-01-23 19:42:00,
2013-01-23 11:52:00,67.0,26.0,-100.00,ENE,77,7.0,12.0,21,-99.99,,,-99.99,,2013-01-23 19:52:00,
2013-01-23 12:02:00,67.0,26.0,-100.00,ENE,78,7.0,13.0,21,-99.99,,,-99.99,,2013-01-23 20:02:00,
2013-01-23 12:12:00,67.0,26.0,-100.00,ENE,69,6.0,13.0,21,-99.99,,,-99.99,,2013-01-23 20:12:00,
2013-01-23 12:22:00,67.0,25.0,-100.00,ENE,70,7.0,12.0,20,-99.99,,,-99.99,,2013-01-23 20:22:00,
2013-01-23 12:32:00,67.0,25.0,-100.00,ENE,73,6.0,11.0,20,-99.99,,,-99.99,,2013-01-23 20:32:00,
2013-01-23 12:42:00,67.0,25.0,-100.00,ENE,73,6.0,11.0,20,-99.99,,,-99.99,,2013-01-23 20:42:00,
2013-01-23 12:53:00,67.0,23.0,-100.00,ENE,64,8.0,12.0,19,-99.99,,,-99.99,,2013-01-23 20:53:00,
2013-01-23 13:02:00,67.0,23.0,-100.00,ENE,67,7.0,11.0,19,-99.99,,,-99.99,,2013-01-23 21:02:00,
2013-01-23 13:12:00,68.0,24.0,-100.00,ENE,65,5.0,9.0,19,-99.99,,,-99.99,,2013-01-23 21:12:00,
2013-01-23 13:22:00,67.0,22.0,-100.00,ENE,60,6.0,9.0,18,-99.99,,,-99.99,,2013-01-23 21:22:00,
2013-01-23 13:33:00,68.0,23.0,-100.00,NE,53,5.0,9.0,18,-99.99,,,-99.99,,2013-01-23 21:33:00,
2013-01-23 13:42:00,68.0,24.0,-100.00,ENE,69,6.0,9.0,19,-99.99,,,-99.99,,2013-01-23 21:42:00,
2013-01-23 13:52:00,67.0,23.0,-100.00,ENE,71,5.0,8.0,19,-99.99,,,-99.99,,2013-01-23 21:52:00,
2013-01-23 14:02:00,67.0,23.0,-100.00,ENE,74,5.0,8.0,19,-99.99,,,-99.99,,2013-01-23 22:02:00,
2013-01-23 14:12:00,67.0,23.0,-100.00,ENE,77,3.0,6.0,19,-99.99,,,-99.99,,2013-01-23 22:12:00,
2013-01-23 14:22:00,67.0,23.0,-100.00,NE,55,4.0,7.0,19,-99.99,,,-99.99,,2013-01-23 22:22:00,
2013-01-23 14:33:00,67.0,21.0,-100.00,NE,36,4.0,7.0,17,-99.99,,,-99.99,,2013-01-23 22:33:00,
2013-01-23 14:42:00,68.0,22.0,-100.00,NNE,29,4.0,6.0,17,-99.99,,,-99.99,,2013-01-23 22:42:00,
2013-01-23 14:52:00,69.0,22.0,-100.00,ENE,72,1.0,4.0,17,-99.99,,,-99.99,,2013-01-23 22:52:00,
2013-01-23 15:02:00,69.0,25.0,-100.00,SW,227,2.0,8.0,19,-99.99,,,-99.99,,2013-01-23 23:02:00,
2013-01-23 15:12:00,68.0,31.0,-100.00,SW,225,5.0,11.0,25,-99.99,,,-99.99,,2013-01-23 23:12:00,
2013-01-23 15:22:00,68.0,32.0,-100.00,SW,225,5.0,12.0,26,-99.99,,,-99.99,,2013-01-23 23:22:00,
2013-01-23 15:33:00,67.0,32.0,-100.00,SW,225,6.0,11.0,27,-99.99,,,-99.99,,2013-01-23 23:33:00,
2013-01-23 15:42:00,67.0,32.0,-100.00,SW,232,5.0,10.0,27,-99.99,,,-99.99,,2013-01-23 23:42:00,
2013-01-23 15:52:00,67.0,33.0,-100.00,SW,232,7.0,11.0,28,-99.99,,,-99.99,,2013-01-23 23:52:00,
2013-01-23 16:02:00,66.0,31.0,-100.00,SW,236,7.0,12.0,27,-99.99,,,-99.99,,2013-01-24 00:02:00,
2013-01-23 16:12:00,65.0,31.0,-100.00,WSW,244,7.0,12.0,28,-99.99,,,-99.99,,2013-01-24 00:12:00,
2013-01-23 16:22:00,65.0,31.0,-100.00,SW,232,5.0,10.0,28,-99.99,,,-99.99,,2013-01-24 00:22:00,
2013-01-23 16:32:00,64.0,30.0,-100.00,SW,232,6.0,11.0,28,-99.99,,,-99.99,,2013-01-24 00:32:00,
2013-01-23 16:42:00,64.0,30.0,-100.00,SW,232,6.0,11.0,28,-99.99,,,-99.99,,2013-01-24 00:42:00,
2013-01-23 16:52:00,63.0,30.0,-100.00,WSW,239,4.0,8.0,29,-99.99,,,-99.99,,2013-01-24 00:52:00,
2013-01-23 17:02:00,63.0,30.0,-100.00,SW,234,4.0,7.0,29,-99.99,,,-99.99,,2013-01-24 01:02:00,
2013-01-23 17:12:00,62.0,30.0,-100.00,SW,231,3.0,6.0,30,-99.99,,,-99.99,,2013-01-24 01:12:00,
2013-01-23 17:22:00,61.0,30.0,-100.00,SW,236,3.0,6.0,31,-99.99,,,-99.99,,2013-01-24 01:22:00,
2013-01-23 17:32:00,60.0,29.0,-100.00,WSW,251,4.0,7.0,31,-99.99,,,-99.99,,2013-01-24 01:32:00,
2013-01-23 17:42:00,60.0,29.0,-100.00,WSW,238,4.0,6.0,31,-99.99,,,-99.99,,2013-01-24 01:42:00,
2013-01-23 17:52:00,59.0,28.0,-100.00,WSW,238,4.0,6.0,31,-99.99,,,-99.99,,2013-01-24 01:52:00,
2013-01-23 18:02:00,59.0,28.0,-100.00,SW,227,3.0,5.0,31,-99.99,,,-99.99,,2013-01-24 02:02:00,
2013-01-23 18:12:00,59.0,28.0,-100.00,SSW,209,3.0,4.0,31,-99.99,,,-99.99,,2013-01-24 02:12:00,
2013-01-23 18:22:00,58.0,28.0,-100.00,SE,130,1.0,3.0,32,-99.99,,,-99.99,,2013-01-24 02:22:00,
2013-01-23 18:32:00,57.0,28.0,-100.00,SSW,204,1.0,3.0,33,-99.99,,,-99.99,,2013-01-24 02:32:00,
2013-01-23 18:42:00,57.0,28.0,-100.00,SSW,204,1.0,3.0,33,-99.99,,,-99.99,,2013-01-24 02:42:00,
2013-01-23 18:52:00,57.0,28.0,-100.00,SSW,204,1.0,3.0,33,-99.99,,,-99.99,,2013-01-24 02:52:00,
2013-01-23 19:02:00,57.0,27.0,-100.00,SW,220,4.0,6.0,32,-99.99,,,-99.99,,2013-01-24 03:02:00,
2013-01-23 19:12:00,57.0,28.0,-100.00,SW,219,4.0,6.0,33,-99.99,,,-99.99,,2013-01-24 03:12:00,
2013-01-23 19:22:00,57.0,29.0,-100.00,WSW,248,3.0,4.0,34,-99.99,,,-99.99,,2013-01-24 03:22:00,
2013-01-23 19:32:00,56.0,28.0,-100.00,SW,235,3.0,5.0,34,-99.99,,,-99.99,,2013-01-24 03:32:00,
2013-01-23 19:42:00,56.0,28.0,-100.00,SW,216,3.0,5.0,34,-99.99,,,-99.99,,2013-01-24 03:42:00,
2013-01-23 19:52:00,56.0,28.0,-100.00,WSW,242,2.0,4.0,34,-99.99,,,-99.99,,2013-01-24 03:52:00,
2013-01-23 20:02:00,56.0,28.0,-100.00,SSW,208,2.0,4.0,34,-99.99,,,-99.99,,2013-01-24 04:02:00,
2013-01-23 20:12:00,56.0,28.0,-100.00,SW,220,4.0,5.0,34,-99.99,,,-99.99,,2013-01-24 04:12:00,
2013-01-23 20:22:00,56.0,28.0,-100.00,SW,217,4.0,5.0,34,-99.99,,,-99.99,,2013-01-24 04:22:00,
2013-01-23 20:32:00,56.0,27.0,-100.00,SW,216,4.0,7.0,33,-99.99,,,-99.99,,2013-01-24 04:32:00,
2013-01-23 20:42:00,56.0,28.0,-100.00,SW,225,3.0,5.0,34,-99.99,,,-99.99,,2013-01-24 04:42:00,
2013-01-23 20:52:00,56.0,28.0,-100.00,SW,224,3.0,5.0,34,-99.99,,,-99.99,,2013-01-24 04:52:00,
2013-01-23 21:03:00,56.0,28.0,-100.00,South,177,1.0,3.0,34,-99.99,,,-99.99,,2013-01-24 05:03:00,
2013-01-23 21:12:00,55.0,27.0,-100.00,South,170,1.0,4.0,34,-99.99,,,-99.99,,2013-01-24 05:12:00,
2013-01-23 21:22:00,55.0,28.0,-100.00,SW,222,1.0,2.0,35,-99.99,,,-99.99,,2013-01-24 05:22:00,
2013-01-23 21:32:00,55.0,28.0,-100.00,ESE,109,2.0,3.0,35,-99.99,,,-99.99,,2013-01-24 05:32:00,
2013-01-23 21:42:00,56.0,28.0,-100.00,SSE,155,1.0,2.0,34,-99.99,,,-99.99,,2013-01-24 05:42:00,
2013-01-23 21:52:00,56.0,29.0,-100.00,SSE,153,1.0,2.0,36,-99.99,,,-99.99,,2013-01-24 05:52:00,
2013-01-23 22:02:00,56.0,29.0,-100.00,SE,138,1.0,3.0,36,-99.99,,,-99.99,,2013-01-24 06:02:00,
2013-01-23 22:12:00,54.0,31.0,-100.00,East,87,1.0,2.0,42,-99.99,,,-99.99,,2013-01-24 06:12:00,
2013-01-23 22:22:00,54.0,31.0,-100.00,ESE,107,2.0,5.0,42,-99.99,,,-99.99,,2013-01-24 06:22:00,
2013-01-23 22:32:00,56.0,29.0,-100.00,SE,137,3.0,5.0,35,-99.99,,,-99.99,,2013-01-24 06:32:00,
2013-01-23 22:42:00,56.0,29.0,-100.00,SSW,205,2.0,3.0,36,-99.99,,,-99.99,,2013-01-24 06:42:00,
2013-01-23 22:52:00,54.0,33.0,-100.00,ENE,62,1.0,1.0,45,-99.99,,,-99.99,,2013-01-24 06:52:00,
2013-01-23 23:02:00,53.0,33.0,-100.00,ESE,113,1.0,2.0,47,-99.99,,,-99.99,,2013-01-24 07:02:00,
2013-01-23 23:12:00,54.0,31.0,-100.00,SSW,192,3.0,5.0,42,-99.99,,,-99.99,,2013-01-24 07:12:00,
2013-01-23 23:22:00,54.0,33.0,-100.00,SSW,213,1.0,3.0,44,-99.99,,,-99.99,,2013-01-24 07:22:00,
2013-01-23 23:32:00,54.0,30.0,-100.00,South,188,1.0,2.0,40,-99.99,,,-99.99,,2013-01-24 07:32:00,
2013-01-23 23:42:00,55.0,32.0,-100.00,North,-999,0.0,0.0,42,-99.99,,,-99.99,,2013-01-24 07:42:00,
2013-01-23 23:52:00,54.0,32.0,-100.00,SSW,210,0.0,2.0,43,-99.99,,,-99.99,,2013-01-24 07:52:00,